sensor_id;sensor_type;location;lat;lon;timestamp;pressure;altitude;pressure_sealevel;temperature;humidity
19831;BME280;10076;52.008;4.708;2023-06-22T00:00:54;101987.94;;;21.71;100.00
19831;BME280;10076;52.008;4.708;2023-06-22T00:03:20;101992.16;;;21.74;100.00
19831;BME280;10076;52.008;4.708;2023-06-22T00:05:47;101998.97;;;21.68;100.00
19831;BME280;10076;52.008;4.708;2023-06-22T00:08:13;101997.59;;;21.64;100.00
19831;BME280;10076;52.008;4.708;2023-06-22T00:10:39;101993.69;;;21.76;100.00
19831;BME280;10076;52.008;4.708;2023-06-22T00:13:06;101994.69;;;21.75;100.00
19831;BME280;10076;52.008;4.708;2023-06-22T00:15:31;101994.91;;;21.64;100.00
19831;BME280;10076;52.008;4.708;2023-06-22T00:17:57;101992.97;;;21.57;100.00
19831;BME280;10076;52.008;4.708;2023-06-22T00:20:24;101987.88;;;21.54;100.00
19831;BME280;10076;52.008;4.708;2023-06-22T00:22:53;101985.75;;;21.57;100.00
19831;BME280;10076;52.008;4.708;2023-06-22T00:25:19;101980.31;;;21.67;100.00
19831;BME280;10076;52.008;4.708;2023-06-22T00:27:44;101987.44;;;21.58;100.00
19831;BME280;10076;52.008;4.708;2023-06-22T00:30:10;101978.00;;;21.55;100.00
19831;BME280;10076;52.008;4.708;2023-06-22T00:32:35;101979.25;;;21.51;100.00
19831;BME280;10076;52.008;4.708;2023-06-22T00:35:00;101979.84;;;21.45;100.00
19831;BME280;10076;52.008;4.708;2023-06-22T00:37:26;101974.06;;;21.40;100.00
19831;BME280;10076;52.008;4.708;2023-06-22T00:39:55;101966.38;;;21.54;100.00
19831;BME280;10076;52.008;4.708;2023-06-22T00:42:20;101963.56;;;21.46;100.00
19831;BME280;10076;52.008;4.708;2023-06-22T00:44:45;101964.69;;;21.44;100.00
19831;BME280;10076;52.008;4.708;2023-06-22T00:47:12;101963.63;;;21.37;100.00
19831;BME280;10076;52.008;4.708;2023-06-22T00:49:38;101960.25;;;21.35;100.00
19831;BME280;10076;52.008;4.708;2023-06-22T00:52:05;101958.16;;;21.29;100.00
19831;BME280;10076;52.008;4.708;2023-06-22T00:54:35;101959.25;;;21.36;100.00
19831;BME280;10076;52.008;4.708;2023-06-22T00:57:01;101967.19;;;21.28;100.00
19831;BME280;10076;52.008;4.708;2023-06-22T00:59:27;101973.97;;;21.32;100.00
19831;BME280;10076;52.008;4.708;2023-06-22T01:01:52;101963.13;;;21.24;100.00
19831;BME280;10076;52.008;4.708;2023-06-22T01:04:18;101966.66;;;21.24;100.00
19831;BME280;10076;52.008;4.708;2023-06-22T01:06:54;101964.72;;;21.17;100.00
19831;BME280;10076;52.008;4.708;2023-06-22T01:09:29;101968.22;;;21.17;100.00
19831;BME280;10076;52.008;4.708;2023-06-22T01:12:01;101961.03;;;21.18;100.00
19831;BME280;10076;52.008;4.708;2023-06-22T01:14:40;101963.31;;;21.13;100.00
19831;BME280;10076;52.008;4.708;2023-06-22T01:17:08;101955.44;;;21.11;100.00
19831;BME280;10076;52.008;4.708;2023-06-22T01:20:03;101957.41;;;21.09;100.00
19831;BME280;10076;52.008;4.708;2023-06-22T01:22:33;101950.06;;;21.11;100.00
19831;BME280;10076;52.008;4.708;2023-06-22T01:25:10;101949.22;;;21.01;100.00
19831;BME280;10076;52.008;4.708;2023-06-22T01:27:50;101948.03;;;21.13;100.00
19831;BME280;10076;52.008;4.708;2023-06-22T01:30:18;101951.22;;;20.99;100.00
19831;BME280;10076;52.008;4.708;2023-06-22T01:32:44;101955.19;;;20.95;100.00
19831;BME280;10076;52.008;4.708;2023-06-22T01:35:10;101963.41;;;20.94;100.00
19831;BME280;10076;52.008;4.708;2023-06-22T01:37:38;101959.31;;;20.90;100.00
19831;BME280;10076;52.008;4.708;2023-06-22T01:40:05;101960.72;;;20.94;100.00
19831;BME280;10076;52.008;4.708;2023-06-22T01:42:31;101964.38;;;20.93;100.00
19831;BME280;10076;52.008;4.708;2023-06-22T01:44:58;101964.97;;;20.87;100.00
19831;BME280;10076;52.008;4.708;2023-06-22T01:47:24;101963.13;;;20.97;100.00
19831;BME280;10076;52.008;4.708;2023-06-22T01:49:50;101949.69;;;20.97;100.00
19831;BME280;10076;52.008;4.708;2023-06-22T01:52:19;101958.84;;;20.94;100.00
19831;BME280;10076;52.008;4.708;2023-06-22T01:54:46;101960.31;;;20.89;100.00
19831;BME280;10076;52.008;4.708;2023-06-22T01:57:12;101954.66;;;20.83;100.00
19831;BME280;10076;52.008;4.708;2023-06-22T02:00:03;101956.50;;;20.82;100.00
19831;BME280;10076;52.008;4.708;2023-06-22T02:02:37;101958.78;;;20.77;100.00
19831;BME280;10076;52.008;4.708;2023-06-22T02:05:09;101949.75;;;20.78;100.00
19831;BME280;10076;52.008;4.708;2023-06-22T02:07:49;101947.63;;;20.72;100.00
19831;BME280;10076;52.008;4.708;2023-06-22T02:10:20;101953.72;;;20.65;100.00
19831;BME280;10076;52.008;4.708;2023-06-22T02:12:47;101962.59;;;20.65;100.00
19831;BME280;10076;52.008;4.708;2023-06-22T02:15:13;101955.84;;;20.61;100.00
19831;BME280;10076;52.008;4.708;2023-06-22T02:17:39;101956.63;;;20.90;100.00
19831;BME280;10076;52.008;4.708;2023-06-22T02:20:12;101947.88;;;20.69;100.00
19831;BME280;10076;52.008;4.708;2023-06-22T02:22:38;101950.06;;;20.56;100.00
19831;BME280;10076;52.008;4.708;2023-06-22T02:25:03;101947.38;;;20.56;100.00
19831;BME280;10076;52.008;4.708;2023-06-22T02:27:29;101939.03;;;20.59;100.00
19831;BME280;10076;52.008;4.708;2023-06-22T02:29:54;101945.94;;;20.62;100.00
19831;BME280;10076;52.008;4.708;2023-06-22T02:32:19;101940.00;;;20.68;100.00
19831;BME280;10076;52.008;4.708;2023-06-22T02:34:45;101946.66;;;20.64;100.00
19831;BME280;10076;52.008;4.708;2023-06-22T02:37:15;101943.69;;;20.57;100.00
19831;BME280;10076;52.008;4.708;2023-06-22T02:39:41;101939.19;;;20.58;100.00
19831;BME280;10076;52.008;4.708;2023-06-22T02:42:06;101940.16;;;20.57;100.00
19831;BME280;10076;52.008;4.708;2023-06-22T02:44:32;101937.31;;;20.58;100.00
19831;BME280;10076;52.008;4.708;2023-06-22T02:46:57;101941.44;;;20.62;100.00
19831;BME280;10076;52.008;4.708;2023-06-22T02:49:23;101944.69;;;20.56;100.00
19831;BME280;10076;52.008;4.708;2023-06-22T02:51:49;101943.44;;;20.51;100.00
19831;BME280;10076;52.008;4.708;2023-06-22T02:54:14;101953.84;;;20.63;100.00
19831;BME280;10076;52.008;4.708;2023-06-22T02:56:40;101960.50;;;20.59;100.00
19831;BME280;10076;52.008;4.708;2023-06-22T02:59:06;101955.44;;;20.47;100.00
19831;BME280;10076;52.008;4.708;2023-06-22T03:01:31;101958.97;;;20.47;100.00
19831;BME280;10076;52.008;4.708;2023-06-22T03:04:03;101955.44;;;20.47;100.00
19831;BME280;10076;52.008;4.708;2023-06-22T03:06:28;101963.63;;;20.45;100.00
19831;BME280;10076;52.008;4.708;2023-06-22T03:09:01;101957.69;;;20.51;100.00
19831;BME280;10076;52.008;4.708;2023-06-22T03:11:29;101957.69;;;20.51;100.00
19831;BME280;10076;52.008;4.708;2023-06-22T03:13:54;101971.00;;;20.43;100.00
19831;BME280;10076;52.008;4.708;2023-06-22T03:16:19;101956.16;;;20.39;100.00
19831;BME280;10076;52.008;4.708;2023-06-22T03:18:45;101946.13;;;20.41;100.00
19831;BME280;10076;52.008;4.708;2023-06-22T03:21:10;101934.84;;;20.38;100.00
19831;BME280;10076;52.008;4.708;2023-06-22T03:23:35;101933.28;;;20.35;100.00
19831;BME280;10076;52.008;4.708;2023-06-22T03:26:01;101927.66;;;20.38;100.00
19831;BME280;10076;52.008;4.708;2023-06-22T03:28:27;101925.13;;;20.27;100.00
19831;BME280;10076;52.008;4.708;2023-06-22T03:30:52;101932.31;;;20.27;100.00
19831;BME280;10076;52.008;4.708;2023-06-22T03:33:18;101933.84;;;20.29;100.00
19831;BME280;10076;52.008;4.708;2023-06-22T03:35:44;101931.88;;;20.31;100.00
19831;BME280;10076;52.008;4.708;2023-06-22T03:38:09;101931.59;;;20.34;100.00
19831;BME280;10076;52.008;4.708;2023-06-22T03:40:34;101925.81;;;20.29;100.00
19831;BME280;10076;52.008;4.708;2023-06-22T03:43:00;101923.69;;;20.33;100.00
19831;BME280;10076;52.008;4.708;2023-06-22T03:45:25;101926.22;;;20.34;100.00
19831;BME280;10076;52.008;4.708;2023-06-22T03:47:50;101918.72;;;20.38;100.00
19831;BME280;10076;52.008;4.708;2023-06-22T03:50:16;101921.44;;;20.28;100.00
19831;BME280;10076;52.008;4.708;2023-06-22T03:52:41;101923.84;;;20.31;100.00
19831;BME280;10076;52.008;4.708;2023-06-22T03:55:07;101913.69;;;20.25;100.00
19831;BME280;10076;52.008;4.708;2023-06-22T03:57:33;101916.38;;;20.25;100.00
19831;BME280;10076;52.008;4.708;2023-06-22T03:59:58;101917.91;;;20.37;100.00
19831;BME280;10076;52.008;4.708;2023-06-22T04:02:24;101904.75;;;20.44;100.00
19831;BME280;10076;52.008;4.708;2023-06-22T04:04:49;101907.31;;;20.36;100.00
19831;BME280;10076;52.008;4.708;2023-06-22T04:07:15;101912.09;;;20.42;100.00
19831;BME280;10076;52.008;4.708;2023-06-22T04:09:40;101908.97;;;20.46;100.00
19831;BME280;10076;52.008;4.708;2023-06-22T04:12:06;101900.06;;;20.55;100.00
19831;BME280;10076;52.008;4.708;2023-06-22T04:14:31;101904.97;;;20.60;100.00
19831;BME280;10076;52.008;4.708;2023-06-22T04:16:57;101903.25;;;20.68;100.00
19831;BME280;10076;52.008;4.708;2023-06-22T04:19:23;101897.59;;;20.71;100.00
19831;BME280;10076;52.008;4.708;2023-06-22T04:21:48;101897.31;;;20.74;100.00
19831;BME280;10076;52.008;4.708;2023-06-22T04:24:14;101898.97;;;20.84;100.00
19831;BME280;10076;52.008;4.708;2023-06-22T04:26:39;101898.88;;;20.77;100.00
19831;BME280;10076;52.008;4.708;2023-06-22T04:29:07;101903.75;;;20.90;100.00
19831;BME280;10076;52.008;4.708;2023-06-22T04:31:34;101905.03;;;20.96;100.00
19831;BME280;10076;52.008;4.708;2023-06-22T04:34:05;101915.84;;;21.04;100.00
19831;BME280;10076;52.008;4.708;2023-06-22T04:36:39;101913.97;;;21.14;100.00
19831;BME280;10076;52.008;4.708;2023-06-22T04:39:10;101908.69;;;21.22;100.00
19831;BME280;10076;52.008;4.708;2023-06-22T04:41:37;101914.22;;;21.38;100.00
19831;BME280;10076;52.008;4.708;2023-06-22T04:44:12;101913.94;;;21.41;100.00
19831;BME280;10076;52.008;4.708;2023-06-22T04:46:38;101909.66;;;21.48;100.00
19831;BME280;10076;52.008;4.708;2023-06-22T04:49:07;101923.22;;;21.55;100.00
19831;BME280;10076;52.008;4.708;2023-06-22T04:51:40;101928.34;;;21.66;100.00
19831;BME280;10076;52.008;4.708;2023-06-22T04:54:06;101921.88;;;21.69;100.00
19831;BME280;10076;52.008;4.708;2023-06-22T04:56:32;101923.25;;;21.73;100.00
19831;BME280;10076;52.008;4.708;2023-06-22T04:58:58;101915.31;;;21.89;100.00
19831;BME280;10076;52.008;4.708;2023-06-22T05:01:23;101920.78;;;21.79;100.00
19831;BME280;10076;52.008;4.708;2023-06-22T05:03:49;101910.72;;;21.81;100.00
19831;BME280;10076;52.008;4.708;2023-06-22T05:06:15;101916.88;;;21.74;100.00
19831;BME280;10076;52.008;4.708;2023-06-22T05:08:40;101915.72;;;21.76;100.00
19831;BME280;10076;52.008;4.708;2023-06-22T05:11:06;101922.63;;;21.79;100.00
19831;BME280;10076;52.008;4.708;2023-06-22T05:13:32;101914.41;;;21.80;100.00
19831;BME280;10076;52.008;4.708;2023-06-22T05:15:58;101918.78;;;21.81;100.00
19831;BME280;10076;52.008;4.708;2023-06-22T05:18:35;101919.53;;;21.91;100.00
19831;BME280;10076;52.008;4.708;2023-06-22T05:21:01;101921.69;;;22.05;100.00
19831;BME280;10076;52.008;4.708;2023-06-22T05:23:26;101923.97;;;22.18;100.00
19831;BME280;10076;52.008;4.708;2023-06-22T05:25:52;101923.19;;;22.25;100.00
19831;BME280;10076;52.008;4.708;2023-06-22T05:28:17;101916.91;;;22.34;100.00
19831;BME280;10076;52.008;4.708;2023-06-22T05:30:47;101917.66;;;22.44;100.00
19831;BME280;10076;52.008;4.708;2023-06-22T05:33:13;101923.13;;;22.60;100.00
19831;BME280;10076;52.008;4.708;2023-06-22T05:35:38;101920.59;;;22.84;100.00
19831;BME280;10076;52.008;4.708;2023-06-22T05:38:03;101911.50;;;22.85;100.00
19831;BME280;10076;52.008;4.708;2023-06-22T05:40:29;101910.03;;;22.90;100.00
19831;BME280;10076;52.008;4.708;2023-06-22T05:42:54;101911.44;;;22.69;100.00
19831;BME280;10076;52.008;4.708;2023-06-22T05:45:19;101914.66;;;22.72;100.00
19831;BME280;10076;52.008;4.708;2023-06-22T05:47:45;101918.38;;;22.79;100.00
19831;BME280;10076;52.008;4.708;2023-06-22T05:50:10;101908.66;;;22.86;100.00
19831;BME280;10076;52.008;4.708;2023-06-22T05:52:35;101913.56;;;22.91;100.00
19831;BME280;10076;52.008;4.708;2023-06-22T05:55:02;101915.91;;;22.93;100.00
19831;BME280;10076;52.008;4.708;2023-06-22T05:57:27;101913.59;;;22.98;100.00
19831;BME280;10076;52.008;4.708;2023-06-22T05:59:52;101916.75;;;23.19;100.00
19831;BME280;10076;52.008;4.708;2023-06-22T06:02:19;101917.41;;;23.13;100.00
19831;BME280;10076;52.008;4.708;2023-06-22T06:04:44;101914.75;;;23.29;100.00
19831;BME280;10076;52.008;4.708;2023-06-22T06:07:09;101915.47;;;23.39;100.00
19831;BME280;10076;52.008;4.708;2023-06-22T06:09:35;101914.81;;;23.45;100.00
19831;BME280;10076;52.008;4.708;2023-06-22T06:12:00;101915.50;;;23.63;100.00
19831;BME280;10076;52.008;4.708;2023-06-22T06:14:28;101906.44;;;23.56;100.00
19831;BME280;10076;52.008;4.708;2023-06-22T06:16:53;101905.09;;;23.68;100.00
19831;BME280;10076;52.008;4.708;2023-06-22T06:19:18;101908.28;;;23.64;100.00
19831;BME280;10076;52.008;4.708;2023-06-22T06:21:43;101907.81;;;23.76;100.00
19831;BME280;10076;52.008;4.708;2023-06-22T06:24:09;101911.31;;;23.68;100.00
19831;BME280;10076;52.008;4.708;2023-06-22T06:26:34;101910.84;;;23.81;100.00
19831;BME280;10076;52.008;4.708;2023-06-22T06:29:01;101912.75;;;23.88;100.00
19831;BME280;10076;52.008;4.708;2023-06-22T06:31:27;101910.53;;;24.00;100.00
19831;BME280;10076;52.008;4.708;2023-06-22T06:33:54;101903.47;;;24.07;100.00
19831;BME280;10076;52.008;4.708;2023-06-22T06:36:19;101891.47;;;24.25;100.00
19831;BME280;10076;52.008;4.708;2023-06-22T06:38:44;101896.03;;;24.40;100.00
19831;BME280;10076;52.008;4.708;2023-06-22T06:41:13;101888.22;;;24.61;100.00
19831;BME280;10076;52.008;4.708;2023-06-22T06:43:38;101887.19;;;24.70;100.00
19831;BME280;10076;52.008;4.708;2023-06-22T06:46:03;101882.09;;;24.83;100.00
19831;BME280;10076;52.008;4.708;2023-06-22T06:48:29;101882.22;;;24.98;100.00
19831;BME280;10076;52.008;4.708;2023-06-22T06:50:54;101885.06;;;24.96;100.00
19831;BME280;10076;52.008;4.708;2023-06-22T06:53:20;101895.88;;;25.12;100.00
19831;BME280;10076;52.008;4.708;2023-06-22T06:55:45;101885.38;;;25.17;100.00
19831;BME280;10076;52.008;4.708;2023-06-22T06:58:10;101882.75;;;25.31;100.00
19831;BME280;10076;52.008;4.708;2023-06-22T07:00:38;101885.22;;;25.41;100.00
19831;BME280;10076;52.008;4.708;2023-06-22T07:03:04;101877.47;;;25.38;100.00
19831;BME280;10076;52.008;4.708;2023-06-22T07:05:29;101883.84;;;25.45;100.00
19831;BME280;10076;52.008;4.708;2023-06-22T07:07:55;101883.03;;;25.44;100.00
19831;BME280;10076;52.008;4.708;2023-06-22T07:10:20;101874.56;;;25.39;100.00
19831;BME280;10076;52.008;4.708;2023-06-22T07:12:46;101877.41;;;25.46;100.00
19831;BME280;10076;52.008;4.708;2023-06-22T07:15:11;101872.28;;;25.59;100.00
19831;BME280;10076;52.008;4.708;2023-06-22T07:17:38;101869.97;;;25.70;100.00
19831;BME280;10076;52.008;4.708;2023-06-22T07:20:06;101871.28;;;25.82;100.00
19831;BME280;10076;52.008;4.708;2023-06-22T07:22:36;101860.78;;;26.01;100.00
19831;BME280;10076;52.008;4.708;2023-06-22T07:25:01;101859.50;;;26.12;100.00
19831;BME280;10076;52.008;4.708;2023-06-22T07:27:29;101858.22;;;26.22;100.00
19831;BME280;10076;52.008;4.708;2023-06-22T07:30:00;101864.09;;;26.26;100.00
19831;BME280;10076;52.008;4.708;2023-06-22T07:32:25;101863.00;;;26.35;100.00
19831;BME280;10076;52.008;4.708;2023-06-22T07:34:50;101862.03;;;26.50;100.00
19831;BME280;10076;52.008;4.708;2023-06-22T07:37:16;101862.59;;;26.46;100.00
19831;BME280;10076;52.008;4.708;2023-06-22T07:39:41;101862.22;;;26.49;100.00
19831;BME280;10076;52.008;4.708;2023-06-22T07:42:07;101866.59;;;26.64;100.00
19831;BME280;10076;52.008;4.708;2023-06-22T07:44:33;101862.59;;;26.60;100.00
19831;BME280;10076;52.008;4.708;2023-06-22T07:46:58;101857.91;;;26.54;100.00
19831;BME280;10076;52.008;4.708;2023-06-22T07:49:23;101858.00;;;26.75;100.00
19831;BME280;10076;52.008;4.708;2023-06-22T07:51:49;101856.34;;;26.88;100.00
19831;BME280;10076;52.008;4.708;2023-06-22T07:54:14;101849.88;;;27.04;100.00
19831;BME280;10076;52.008;4.708;2023-06-22T07:56:40;101851.94;;;27.02;100.00
19831;BME280;10076;52.008;4.708;2023-06-22T07:59:06;101845.16;;;27.26;100.00
19831;BME280;10076;52.008;4.708;2023-06-22T08:01:31;101845.78;;;27.28;100.00
19831;BME280;10076;52.008;4.708;2023-06-22T08:03:56;101839.81;;;27.33;100.00
19831;BME280;10076;52.008;4.708;2023-06-22T08:06:22;101830.19;;;27.30;100.00
19831;BME280;10076;52.008;4.708;2023-06-22T08:08:47;101837.81;;;27.41;100.00
19831;BME280;10076;52.008;4.708;2023-06-22T08:11:14;101835.03;;;27.56;100.00
19831;BME280;10076;52.008;4.708;2023-06-22T08:13:39;101834.28;;;27.62;100.00
19831;BME280;10076;52.008;4.708;2023-06-22T08:16:05;101821.25;;;27.57;100.00
19831;BME280;10076;52.008;4.708;2023-06-22T08:18:30;101819.78;;;27.55;100.00
19831;BME280;10076;52.008;4.708;2023-06-22T08:20:55;101830.22;;;27.72;100.00
19831;BME280;10076;52.008;4.708;2023-06-22T08:23:20;101828.16;;;27.74;100.00
19831;BME280;10076;52.008;4.708;2023-06-22T08:25:46;101825.44;;;27.95;100.00
19831;BME280;10076;52.008;4.708;2023-06-22T08:28:13;101834.84;;;27.99;100.00
19831;BME280;10076;52.008;4.708;2023-06-22T08:30:38;101825.88;;;28.26;100.00
19831;BME280;10076;52.008;4.708;2023-06-22T08:33:04;101825.31;;;28.30;100.00
19831;BME280;10076;52.008;4.708;2023-06-22T08:35:29;101818.03;;;28.37;100.00
19831;BME280;10076;52.008;4.708;2023-06-22T08:37:55;101813.81;;;28.62;100.00
19831;BME280;10076;52.008;4.708;2023-06-22T08:40:22;101808.50;;;28.88;100.00
19831;BME280;10076;52.008;4.708;2023-06-22T08:42:48;101803.56;;;29.04;100.00
19831;BME280;10076;52.008;4.708;2023-06-22T08:45:14;101808.59;;;29.07;100.00
19831;BME280;10076;52.008;4.708;2023-06-22T08:47:40;101805.69;;;29.22;100.00
19831;BME280;10076;52.008;4.708;2023-06-22T08:50:09;101808.09;;;29.44;100.00
19831;BME280;10076;52.008;4.708;2023-06-22T08:52:36;101804.19;;;29.98;100.00
19831;BME280;10076;52.008;4.708;2023-06-22T08:55:01;101804.56;;;30.27;100.00
19831;BME280;10076;52.008;4.708;2023-06-22T08:57:27;101815.47;;;30.53;100.00
19831;BME280;10076;52.008;4.708;2023-06-22T08:59:53;101804.34;;;30.55;100.00
19831;BME280;10076;52.008;4.708;2023-06-22T09:02:19;101811.25;;;30.64;100.00
19831;BME280;10076;52.008;4.708;2023-06-22T09:04:45;101799.09;;;30.53;100.00
19831;BME280;10076;52.008;4.708;2023-06-22T09:07:11;101801.63;;;30.48;100.00
19831;BME280;10076;52.008;4.708;2023-06-22T09:09:36;101792.22;;;30.44;100.00
19831;BME280;10076;52.008;4.708;2023-06-22T09:12:02;101787.38;;;30.46;100.00
19831;BME280;10076;52.008;4.708;2023-06-22T09:14:27;101789.88;;;30.41;100.00
19831;BME280;10076;52.008;4.708;2023-06-22T09:16:53;101799.72;;;30.55;100.00
19831;BME280;10076;52.008;4.708;2023-06-22T09:19:18;101800.47;;;30.75;100.00
19831;BME280;10076;52.008;4.708;2023-06-22T09:21:43;101793.97;;;30.76;100.00
19831;BME280;10076;52.008;4.708;2023-06-22T09:24:08;101788.25;;;30.90;100.00
19831;BME280;10076;52.008;4.708;2023-06-22T09:26:34;101798.53;;;30.95;100.00
19831;BME280;10076;52.008;4.708;2023-06-22T09:28:59;101798.94;;;30.92;100.00
19831;BME280;10076;52.008;4.708;2023-06-22T09:31:24;101791.16;;;30.95;100.00
19831;BME280;10076;52.008;4.708;2023-06-22T09:33:54;101801.06;;;30.90;100.00
19831;BME280;10076;52.008;4.708;2023-06-22T09:36:21;101788.72;;;30.81;100.00
19831;BME280;10076;52.008;4.708;2023-06-22T09:38:48;101787.31;;;30.66;100.00
19831;BME280;10076;52.008;4.708;2023-06-22T09:41:13;101793.19;;;30.63;100.00
19831;BME280;10076;52.008;4.708;2023-06-22T09:43:39;101787.28;;;30.72;100.00
19831;BME280;10076;52.008;4.708;2023-06-22T09:46:04;101792.56;;;30.67;100.00
19831;BME280;10076;52.008;4.708;2023-06-22T09:48:29;101785.00;;;30.56;100.00
19831;BME280;10076;52.008;4.708;2023-06-22T09:50:56;101778.53;;;30.38;100.00
19831;BME280;10076;52.008;4.708;2023-06-22T09:53:21;101776.69;;;30.38;100.00
19831;BME280;10076;52.008;4.708;2023-06-22T09:55:47;101776.88;;;30.43;100.00
19831;BME280;10076;52.008;4.708;2023-06-22T09:58:12;101772.28;;;30.50;100.00
19831;BME280;10076;52.008;4.708;2023-06-22T10:00:37;101773.72;;;30.46;100.00
19831;BME280;10076;52.008;4.708;2023-06-22T10:03:03;101776.41;;;30.59;100.00
19831;BME280;10076;52.008;4.708;2023-06-22T10:05:28;101771.59;;;30.61;100.00
19831;BME280;10076;52.008;4.708;2023-06-22T10:07:53;101772.47;;;30.49;100.00
19831;BME280;10076;52.008;4.708;2023-06-22T10:10:19;101766.81;;;30.37;100.00
19831;BME280;10076;52.008;4.708;2023-06-22T10:12:54;101772.50;;;30.23;100.00
19831;BME280;10076;52.008;4.708;2023-06-22T10:15:20;101765.19;;;30.04;100.00
19831;BME280;10076;52.008;4.708;2023-06-22T10:17:46;101770.88;;;30.03;100.00
19831;BME280;10076;52.008;4.708;2023-06-22T10:20:12;101769.16;;;29.76;100.00
19831;BME280;10076;52.008;4.708;2023-06-22T10:22:42;101772.09;;;29.87;100.00
19831;BME280;10076;52.008;4.708;2023-06-22T10:25:08;101773.75;;;29.82;100.00
19831;BME280;10076;52.008;4.708;2023-06-22T10:27:33;101779.03;;;29.83;100.00
19831;BME280;10076;52.008;4.708;2023-06-22T10:29:59;101777.31;;;29.76;100.00
19831;BME280;10076;52.008;4.708;2023-06-22T10:32:24;101775.84;;;29.73;100.00
19831;BME280;10076;52.008;4.708;2023-06-22T10:34:50;101777.72;;;29.47;100.00
19831;BME280;10076;52.008;4.708;2023-06-22T10:37:15;101777.94;;;29.39;100.00
19831;BME280;10076;52.008;4.708;2023-06-22T10:39:40;101777.66;;;29.21;100.00
19831;BME280;10076;52.008;4.708;2023-06-22T10:42:06;101771.78;;;29.24;100.00
19831;BME280;10076;52.008;4.708;2023-06-22T10:44:31;101778.66;;;29.01;100.00
19831;BME280;10076;52.008;4.708;2023-06-22T10:46:57;101774.47;;;28.98;100.00
19831;BME280;10076;52.008;4.708;2023-06-22T10:49:22;101778.22;;;28.97;100.00
19831;BME280;10076;52.008;4.708;2023-06-22T10:51:47;101778.59;;;28.94;100.00
19831;BME280;10076;52.008;4.708;2023-06-22T10:54:12;101778.81;;;28.86;100.00
19831;BME280;10076;52.008;4.708;2023-06-22T10:56:39;101786.53;;;28.89;100.00
19831;BME280;10076;52.008;4.708;2023-06-22T10:59:05;101788.81;;;28.86;100.00
19831;BME280;10076;52.008;4.708;2023-06-22T11:01:30;101795.13;;;28.86;100.00
19831;BME280;10076;52.008;4.708;2023-06-22T11:03:56;101789.22;;;28.76;100.00
19831;BME280;10076;52.008;4.708;2023-06-22T11:06:22;101791.03;;;28.69;100.00
19831;BME280;10076;52.008;4.708;2023-06-22T11:08:47;101782.69;;;28.71;100.00
19831;BME280;10076;52.008;4.708;2023-06-22T11:11:12;101778.25;;;28.64;100.00
19831;BME280;10076;52.008;4.708;2023-06-22T11:13:38;101781.78;;;28.58;100.00
19831;BME280;10076;52.008;4.708;2023-06-22T11:16:03;101774.00;;;28.48;100.00
19831;BME280;10076;52.008;4.708;2023-06-22T11:18:28;101778.59;;;28.48;100.00
19831;BME280;10076;52.008;4.708;2023-06-22T11:20:54;101779.78;;;28.39;100.00
19831;BME280;10076;52.008;4.708;2023-06-22T11:23:19;101773.38;;;28.53;100.00
19831;BME280;10076;52.008;4.708;2023-06-22T11:25:44;101781.22;;;28.35;100.00
19831;BME280;10076;52.008;4.708;2023-06-22T11:28:11;101777.63;;;28.28;100.00
19831;BME280;10076;52.008;4.708;2023-06-22T11:30:36;101768.66;;;28.27;100.00
19831;BME280;10076;52.008;4.708;2023-06-22T11:33:02;101759.25;;;28.30;100.00
19831;BME280;10076;52.008;4.708;2023-06-22T11:35:27;101763.03;;;28.35;100.00
19831;BME280;10076;52.008;4.708;2023-06-22T11:37:52;101762.22;;;28.35;100.00
19831;BME280;10076;52.008;4.708;2023-06-22T11:40:18;101746.09;;;28.33;100.00
19831;BME280;10076;52.008;4.708;2023-06-22T11:42:43;101743.41;;;28.12;100.00
19831;BME280;10076;52.008;4.708;2023-06-22T11:45:09;101744.34;;;28.19;100.00
19831;BME280;10076;52.008;4.708;2023-06-22T11:47:34;101737.06;;;27.99;100.00
19831;BME280;10076;52.008;4.708;2023-06-22T11:50:00;101733.63;;;27.84;100.00
19831;BME280;10076;52.008;4.708;2023-06-22T11:52:25;101727.59;;;27.89;100.00
19831;BME280;10076;52.008;4.708;2023-06-22T11:54:52;101730.41;;;27.74;100.00
19831;BME280;10076;52.008;4.708;2023-06-22T11:57:17;101717.94;;;27.80;100.00
19831;BME280;10076;52.008;4.708;2023-06-22T11:59:43;101724.94;;;27.68;100.00
19831;BME280;10076;52.008;4.708;2023-06-22T12:02:08;101721.13;;;27.62;100.00
19831;BME280;10076;52.008;4.708;2023-06-22T12:04:34;101712.16;;;27.62;100.00
19831;BME280;10076;52.008;4.708;2023-06-22T12:07:00;101712.47;;;27.31;100.00
19831;BME280;10076;52.008;4.708;2023-06-22T12:09:25;101713.50;;;27.10;100.00
19831;BME280;10076;52.008;4.708;2023-06-22T12:11:50;101714.38;;;26.96;100.00
19831;BME280;10076;52.008;4.708;2023-06-22T12:14:16;101714.47;;;26.88;100.00
19831;BME280;10076;52.008;4.708;2023-06-22T12:16:41;101704.50;;;26.88;100.00
19831;BME280;10076;52.008;4.708;2023-06-22T12:19:09;101710.75;;;26.89;100.00
19831;BME280;10076;52.008;4.708;2023-06-22T12:21:34;101709.97;;;26.74;100.00
19831;BME280;10076;52.008;4.708;2023-06-22T12:23:59;101700.91;;;26.67;100.00
19831;BME280;10076;52.008;4.708;2023-06-22T12:26:24;101707.63;;;26.71;100.00
19831;BME280;10076;52.008;4.708;2023-06-22T12:28:50;101703.34;;;26.62;100.00
19831;BME280;10076;52.008;4.708;2023-06-22T12:31:15;101704.28;;;26.69;100.00
19831;BME280;10076;52.008;4.708;2023-06-22T12:33:40;101703.19;;;26.84;100.00
19831;BME280;10076;52.008;4.708;2023-06-22T12:36:06;101699.63;;;26.63;100.00